createdAt,value
2022-08-26T00:02:17.212Z,22.15
2022-08-26T00:04:49.315Z,22.11
2022-08-26T00:07:18.001Z,22.11
2022-08-26T00:09:47.434Z,22.08
2022-08-26T00:12:15.670Z,22.06
2022-08-26T00:14:43.792Z,22.07
2022-08-26T00:17:13.532Z,22.05
2022-08-26T00:19:41.567Z,22.03
2022-08-26T00:22:09.576Z,22.00
2022-08-26T00:24:39.496Z,21.97
2022-08-26T00:27:15.851Z,21.94
2022-08-26T00:29:43.829Z,21.90
2022-08-26T00:32:14.417Z,21.90
2022-08-26T00:34:42.426Z,21.87
2022-08-26T00:37:13.385Z,21.84
2022-08-26T00:39:43.743Z,21.84
2022-08-26T00:42:13.916Z,21.82
2022-08-26T00:44:41.901Z,21.79
2022-08-26T00:47:18.972Z,21.75
2022-08-26T00:49:48.488Z,21.72
2022-08-26T00:52:22.944Z,21.71
2022-08-26T00:54:56.267Z,21.69
2022-08-26T00:57:25.421Z,21.65
2022-08-26T01:00:01.234Z,21.62
2022-08-26T01:02:31.008Z,21.61
2022-08-26T01:05:03.238Z,21.57
2022-08-26T01:07:34.731Z,21.49
2022-08-26T01:10:07.395Z,21.53
2022-08-26T01:12:41.830Z,21.25
2022-08-26T01:15:16.314Z,21.49
2022-08-26T01:17:46.067Z,21.48
2022-08-26T01:20:28.278Z,21.39
2022-08-26T01:23:05.433Z,21.48
2022-08-26T01:25:38.641Z,21.46
2022-08-26T01:28:12.868Z,21.31
2022-08-26T01:30:44.189Z,21.44
2022-08-26T01:33:18.327Z,21.43
2022-08-26T01:35:48.341Z,21.43
2022-08-26T01:38:18.702Z,21.41
2022-08-26T01:40:47.384Z,21.39
2022-08-26T01:43:18.561Z,21.39
2022-08-26T01:45:49.435Z,21.24
2022-08-26T01:48:22.765Z,21.40
2022-08-26T01:50:52.736Z,21.42
2022-08-26T01:53:23.602Z,21.40
2022-08-26T01:55:55.856Z,21.40
2022-08-26T01:58:27.396Z,21.38
2022-08-26T02:00:55.773Z,21.37
2022-08-26T02:03:24.683Z,21.34
2022-08-26T02:05:56.304Z,21.30
2022-08-26T02:08:33.021Z,21.28
2022-08-26T02:11:01.305Z,21.23
2022-08-26T02:13:32.826Z,21.20
2022-08-26T02:16:03.888Z,21.18
2022-08-26T02:18:35.940Z,21.08
2022-08-26T02:21:03.994Z,21.12
2022-08-26T02:23:36.442Z,21.08
2022-08-26T02:26:11.068Z,21.05
2022-08-26T02:28:45.448Z,21.01
2022-08-26T02:31:13.677Z,20.95
2022-08-26T02:33:43.027Z,20.98
2022-08-26T02:36:13.393Z,20.95
2022-08-26T02:38:43.166Z,20.94
2022-08-26T02:41:11.301Z,20.93
2022-08-26T02:43:39.248Z,20.90
2022-08-26T02:46:07.378Z,20.86
2022-08-26T02:48:35.488Z,20.85
2022-08-26T02:51:04.257Z,20.83
2022-08-26T02:53:35.680Z,20.81
2022-08-26T02:56:05.879Z,20.65
2022-08-26T02:58:33.950Z,20.81
2022-08-26T03:01:02.558Z,20.80
2022-08-26T03:03:33.356Z,20.79
2022-08-26T03:06:01.408Z,20.60
2022-08-26T03:08:29.425Z,20.72
2022-08-26T03:10:57.382Z,20.66
2022-08-26T03:13:26.761Z,20.67
2022-08-26T03:15:55.111Z,20.64
2022-08-26T03:18:24.202Z,20.60
2022-08-26T03:20:52.203Z,20.65
2022-08-26T03:23:20.688Z,20.66
2022-08-26T03:25:51.157Z,20.64
2022-08-26T03:28:19.682Z,20.61
2022-08-26T03:30:49.237Z,20.59
2022-08-26T03:33:17.614Z,20.55
2022-08-26T03:35:47.712Z,20.53
2022-08-26T03:38:18.643Z,20.50
2022-08-26T03:40:46.765Z,20.43
2022-08-26T03:43:15.911Z,20.43
2022-08-26T03:45:44.553Z,20.41
2022-08-26T03:48:15.515Z,20.45
2022-08-26T03:50:43.903Z,20.42
2022-08-26T03:53:13.107Z,20.34
2022-08-26T03:55:41.991Z,20.37
2022-08-26T03:58:11.344Z,20.35
2022-08-26T04:00:39.583Z,20.33
2022-08-26T04:03:07.950Z,20.27
2022-08-26T04:05:39.572Z,20.27
2022-08-26T04:08:07.853Z,20.25
2022-08-26T04:10:38.923Z,20.21
2022-08-26T04:13:07.607Z,20.13
2022-08-26T04:15:35.709Z,20.14
2022-08-26T04:18:04.362Z,20.11
2022-08-26T04:20:32.607Z,20.10
2022-08-26T04:23:02.049Z,20.07
2022-08-26T04:25:30.093Z,20.04
2022-08-26T04:27:58.118Z,20.02
2022-08-26T04:30:26.299Z,20.01
2022-08-26T04:32:54.350Z,20.00
2022-08-26T04:35:25.749Z,19.82
2022-08-26T04:37:55.315Z,19.95
2022-08-26T04:40:27.489Z,19.71
2022-08-26T04:42:55.778Z,19.93
2022-08-26T04:45:24.451Z,19.92
2022-08-26T04:47:56.310Z,19.91
2022-08-26T04:50:25.756Z,19.89
2022-08-26T04:52:55.569Z,19.89
2022-08-26T04:55:38.769Z,19.90
2022-08-26T04:58:10.335Z,19.87
2022-08-26T05:00:39.319Z,19.89
2022-08-26T05:03:10.605Z,19.98
2022-08-26T05:05:40.910Z,19.96
2022-08-26T05:08:09.944Z,19.98
2022-08-26T05:10:45.417Z,19.81
2022-08-26T05:13:15.593Z,20.03
2022-08-26T05:15:45.279Z,20.02
2022-08-26T05:18:14.884Z,19.99
2022-08-26T05:20:44.881Z,20.00
2022-08-26T05:23:16.364Z,20.02
2022-08-26T05:25:48.009Z,20.04
2022-08-26T05:28:19.593Z,20.06
2022-08-26T05:30:47.872Z,20.12
2022-08-26T05:33:17.387Z,20.15
2022-08-26T05:35:46.308Z,20.18
2022-08-26T05:38:16.632Z,20.21
2022-08-26T05:40:49.030Z,20.24
2022-08-26T05:43:21.004Z,20.22
2022-08-26T05:45:51.057Z,20.29
2022-08-26T05:48:22.654Z,20.35
2022-08-26T05:50:54.132Z,20.40
2022-08-26T05:53:25.937Z,20.43
2022-08-26T05:55:56.617Z,20.49
2022-08-26T05:58:27.167Z,20.51
2022-08-26T06:01:01.482Z,20.53
2022-08-26T06:03:32.051Z,20.59
2022-08-26T06:06:00.304Z,20.62
2022-08-26T06:08:28.275Z,20.63
2022-08-26T06:11:01.999Z,20.61
2022-08-26T06:13:30.404Z,20.52
2022-08-26T06:16:03.642Z,20.61
2022-08-26T06:18:36.459Z,20.57
2022-08-26T06:21:14.591Z,20.55
2022-08-26T06:24:01.180Z,20.61
2022-08-26T06:26:31.286Z,20.63
2022-08-26T06:28:59.763Z,20.66
2022-08-26T06:31:30.494Z,20.66
2022-08-26T06:33:58.662Z,20.69
2022-08-26T06:36:28.649Z,20.78
2022-08-26T06:39:00.376Z,21.14
2022-08-26T06:41:31.760Z,21.71
2022-08-26T06:44:00.345Z,21.87
2022-08-26T06:46:29.557Z,21.51
2022-08-26T06:48:58.172Z,21.47
2022-08-26T06:51:29.108Z,21.27
2022-08-26T06:54:00.288Z,21.27
2022-08-26T06:56:33.952Z,21.25
2022-08-26T06:59:02.517Z,21.26
2022-08-26T07:01:33.006Z,21.19
2022-08-26T07:04:03.860Z,21.13
2022-08-26T07:06:39.173Z,21.23
2022-08-26T07:09:09.992Z,21.17
2022-08-26T07:11:40.441Z,21.29
2022-08-26T07:14:09.163Z,21.32
2022-08-26T07:16:37.498Z,21.38
2022-08-26T07:19:11.078Z,21.47
2022-08-26T07:21:40.196Z,21.58
2022-08-26T07:24:11.042Z,21.63
2022-08-26T07:26:42.986Z,21.64
2022-08-26T07:29:12.318Z,21.78
2022-08-26T07:31:42.691Z,21.84
2022-08-26T07:34:11.782Z,21.93
2022-08-26T07:36:39.913Z,21.88
2022-08-26T07:39:11.011Z,21.88
2022-08-26T07:41:40.476Z,21.96
2022-08-26T07:44:08.756Z,22.09
2022-08-26T07:46:38.235Z,22.11
2022-08-26T07:49:06.555Z,22.18
2022-08-26T07:51:35.537Z,22.23
2022-08-26T07:54:05.491Z,22.30
2022-08-26T07:56:33.951Z,22.40
2022-08-26T07:59:03.474Z,22.46
2022-08-26T08:01:45.040Z,22.59
2022-08-26T08:04:14.176Z,22.86
2022-08-26T08:06:43.963Z,23.24
2022-08-26T08:09:12.536Z,23.41
2022-08-26T08:11:41.439Z,23.44
2022-08-26T08:14:13.350Z,23.55
2022-08-26T08:16:45.770Z,23.69
2022-08-26T08:19:15.369Z,23.96
2022-08-26T08:21:43.935Z,23.98
2022-08-26T08:24:12.270Z,24.57
2022-08-26T08:26:40.307Z,24.31
2022-08-26T08:29:09.066Z,24.12
2022-08-26T08:31:56.748Z,24.34
2022-08-26T08:34:28.246Z,24.62
2022-08-26T08:36:57.252Z,24.60
2022-08-26T08:39:26.273Z,24.75
2022-08-26T08:42:23.630Z,24.98
2022-08-26T08:44:56.568Z,25.25
2022-08-26T08:47:33.859Z,25.89
2022-08-26T08:50:12.986Z,26.58
2022-08-26T08:52:45.145Z,26.20
2022-08-26T08:55:18.322Z,26.10
2022-08-26T08:58:02.427Z,26.63
2022-08-26T09:00:39.889Z,26.49
2022-08-26T09:03:17.605Z,26.49
2022-08-26T09:05:51.377Z,26.01
2022-08-26T09:08:24.267Z,26.18
2022-08-26T09:10:56.014Z,26.36
2022-08-26T09:13:27.381Z,26.85
2022-08-26T09:16:04.398Z,27.07
2022-08-26T09:18:59.252Z,26.90
2022-08-26T09:21:28.126Z,27.37
2022-08-26T09:23:57.120Z,27.20
2022-08-26T09:26:30.786Z,27.39
2022-08-26T09:29:01.853Z,27.51
2022-08-26T09:31:32.435Z,27.53
2022-08-26T09:34:17.448Z,27.99
2022-08-26T09:36:48.517Z,28.17
2022-08-26T09:39:33.836Z,28.09
2022-08-26T09:42:08.363Z,28.01
2022-08-26T09:44:54.462Z,27.79
2022-08-26T09:47:26.810Z,27.67
2022-08-26T09:50:04.255Z,27.61
2022-08-26T09:52:37.756Z,27.79
2022-08-26T09:55:15.581Z,27.32
2022-08-26T09:57:48.921Z,27.65
2022-08-26T10:00:33.400Z,27.72
2022-08-26T10:03:02.563Z,27.98
2022-08-26T10:05:39.980Z,28.04
2022-08-26T10:08:25.751Z,28.03
2022-08-26T10:10:55.366Z,27.94
2022-08-26T10:13:29.579Z,28.13
2022-08-26T10:16:05.696Z,28.27
2022-08-26T10:18:36.504Z,28.32
2022-08-26T10:21:11.404Z,28.63
2022-08-26T10:23:43.457Z,28.69
2022-08-26T10:26:19.293Z,29.00
2022-08-26T10:28:51.339Z,29.33
2022-08-26T10:31:28.854Z,29.42
2022-08-26T10:34:00.355Z,29.74
2022-08-26T10:39:49.068Z,30.07
2022-08-26T10:42:23.033Z,30.11
2022-08-26T10:44:58.752Z,30.05
2022-08-26T10:47:35.201Z,30.52
2022-08-26T10:50:04.380Z,30.15
2022-08-26T10:52:48.014Z,30.27
2022-08-26T10:55:23.903Z,30.13
2022-08-26T10:58:00.119Z,30.14
2022-08-26T11:00:55.445Z,29.94
2022-08-26T11:03:32.611Z,30.37
2022-08-26T11:06:23.835Z,30.75
2022-08-26T11:08:55.420Z,30.89
2022-08-26T11:11:54.551Z,30.77
2022-08-26T11:14:58.500Z,30.42
2022-08-26T11:17:56.418Z,30.25
2022-08-26T11:20:36.482Z,30.44
2022-08-26T11:23:38.898Z,30.58
2022-08-26T11:26:35.592Z,30.85
2022-08-26T11:29:12.844Z,30.77
2022-08-26T11:31:57.159Z,30.67
2022-08-26T11:34:59.189Z,31.38
2022-08-26T11:37:34.654Z,31.31
2022-08-26T11:40:05.425Z,31.14
2022-08-26T11:42:40.955Z,31.22
2022-08-26T11:45:20.179Z,31.20
2022-08-26T11:47:49.461Z,31.27
2022-08-26T11:50:20.562Z,31.34
2022-08-26T11:52:53.833Z,31.41
2022-08-26T11:55:23.275Z,31.80
2022-08-26T11:57:57.263Z,32.14
2022-08-26T12:00:33.381Z,32.49
2022-08-26T12:03:06.721Z,31.82
2022-08-26T12:05:39.470Z,31.86
2022-08-26T12:08:09.572Z,31.94
2022-08-26T12:10:38.068Z,32.06
2022-08-26T12:13:21.268Z,31.63
2022-08-26T12:15:55.784Z,31.80
2022-08-26T12:18:29.261Z,31.98
2022-08-26T12:21:01.520Z,32.32
2022-08-26T12:23:41.839Z,32.30
2022-08-26T12:26:19.451Z,32.75
2022-08-26T12:28:51.284Z,33.00
2022-08-26T12:31:25.930Z,32.83
2022-08-26T12:33:55.519Z,33.85
2022-08-26T12:36:28.633Z,34.78
2022-08-26T12:38:58.583Z,35.19
2022-08-26T12:41:48.752Z,35.76
2022-08-26T12:44:53.186Z,35.94
2022-08-26T12:47:35.133Z,36.78
2022-08-26T12:50:17.531Z,36.45
2022-08-26T12:52:59.447Z,36.05
2022-08-26T12:55:37.761Z,36.92
2022-08-26T12:58:21.267Z,35.36
2022-08-26T13:00:52.000Z,34.54
2022-08-26T13:03:43.369Z,34.32
2022-08-26T13:06:18.331Z,34.64
2022-08-26T13:08:47.847Z,33.91
2022-08-26T13:11:20.435Z,33.21
2022-08-26T13:13:51.674Z,33.72
2022-08-26T13:16:22.122Z,33.50
2022-08-26T13:18:53.086Z,33.15
2022-08-26T13:21:23.811Z,32.74
2022-08-26T13:23:53.143Z,32.41
2022-08-26T13:26:22.093Z,31.80
2022-08-26T13:29:01.489Z,31.43
2022-08-26T13:31:34.642Z,30.86
2022-08-26T13:34:03.146Z,30.46
2022-08-26T13:36:31.967Z,30.42
2022-08-26T13:39:00.660Z,30.29
2022-08-26T13:41:29.835Z,30.14
2022-08-26T13:43:59.582Z,30.04
2022-08-26T13:46:28.761Z,29.93
2022-08-26T13:48:59.007Z,29.67
2022-08-26T13:51:28.547Z,29.52
2022-08-26T13:53:56.661Z,29.55
2022-08-26T13:56:27.448Z,29.42
2022-08-26T13:58:56.303Z,29.51
2022-08-26T14:01:24.928Z,29.55
2022-08-26T14:03:53.298Z,29.71
2022-08-26T14:06:22.991Z,29.78
2022-08-26T14:08:51.248Z,29.80
2022-08-26T14:11:19.501Z,29.83
2022-08-26T14:13:47.587Z,29.92
2022-08-26T14:16:21.999Z,30.27
2022-08-26T14:18:50.996Z,31.12
2022-08-26T14:21:19.647Z,31.40
2022-08-26T14:23:49.412Z,31.80
2022-08-26T14:26:27.779Z,31.52
2022-08-26T14:28:58.868Z,31.70
2022-08-26T14:31:29.111Z,31.93
2022-08-26T14:33:59.476Z,31.87
2022-08-26T14:36:32.120Z,32.28
2022-08-26T14:39:05.363Z,32.26
2022-08-26T14:41:35.410Z,32.28
2022-08-26T14:44:07.258Z,32.11
2022-08-26T14:46:41.213Z,32.54
2022-08-26T14:49:10.698Z,32.62
2022-08-26T14:51:39.436Z,32.58
2022-08-26T14:54:16.102Z,32.40
2022-08-26T14:56:48.545Z,31.92
2022-08-26T14:59:19.372Z,31.91
2022-08-26T15:01:48.041Z,31.81
2022-08-26T15:04:16.594Z,31.58
2022-08-26T15:06:44.761Z,31.40
2022-08-26T15:09:14.914Z,31.17
2022-08-26T15:11:43.017Z,30.95
2022-08-26T15:14:14.876Z,30.69
2022-08-26T15:16:48.597Z,30.31
2022-08-26T15:19:17.428Z,29.92
2022-08-26T15:21:47.314Z,29.86
2022-08-26T15:24:21.016Z,30.01
2022-08-26T15:26:49.565Z,29.85
2022-08-26T15:29:18.053Z,29.80
2022-08-26T15:31:46.718Z,29.87
2022-08-26T15:34:16.948Z,29.78
2022-08-26T15:36:47.031Z,29.93
2022-08-26T15:39:17.816Z,29.98
2022-08-26T15:41:46.727Z,29.75
2022-08-26T15:44:16.951Z,29.38
2022-08-26T15:46:45.804Z,29.41
2022-08-26T15:49:17.618Z,29.38
2022-08-26T15:51:47.891Z,29.20
2022-08-26T15:54:19.585Z,29.00
2022-08-26T15:56:50.525Z,28.86
2022-08-26T15:59:19.847Z,28.76
2022-08-26T16:01:48.335Z,28.68
2022-08-26T16:04:17.555Z,28.55
2022-08-26T16:06:50.158Z,28.48
2022-08-26T16:09:20.625Z,28.32
2022-08-26T16:11:48.767Z,28.20
2022-08-26T16:14:16.829Z,28.16
2022-08-26T16:16:44.961Z,28.09
2022-08-26T16:19:13.071Z,28.00
2022-08-26T16:21:42.193Z,27.95
2022-08-26T16:24:11.003Z,27.88
2022-08-26T16:26:42.444Z,27.65
2022-08-26T16:29:12.991Z,27.62
2022-08-26T16:31:41.450Z,27.41
2022-08-26T16:34:10.253Z,27.25
2022-08-26T16:36:39.708Z,27.07
2022-08-26T16:39:09.141Z,26.91
2022-08-26T16:41:37.953Z,26.73
2022-08-26T16:44:08.442Z,26.61
2022-08-26T16:46:37.160Z,26.33
2022-08-26T16:49:05.318Z,26.25
2022-08-26T16:51:37.708Z,25.98
2022-08-26T16:54:08.647Z,26.04
2022-08-26T16:56:37.923Z,25.75
2022-08-26T16:59:10.506Z,25.39
2022-08-26T17:01:38.940Z,25.20
2022-08-26T17:04:07.052Z,25.00
2022-08-26T17:06:35.314Z,24.12
2022-08-26T17:09:03.429Z,23.09
2022-08-26T17:11:31.726Z,22.18
2022-08-26T17:13:59.961Z,21.51
2022-08-26T17:16:29.676Z,21.28
2022-08-26T17:18:58.381Z,21.11
2022-08-26T17:21:27.928Z,21.10
2022-08-26T17:23:56.599Z,21.04
2022-08-26T17:26:29.438Z,20.94
2022-08-26T17:28:57.269Z,20.89
2022-08-26T17:31:26.403Z,20.86
2022-08-26T17:33:56.686Z,20.85
2022-08-26T17:36:27.446Z,20.89
2022-08-26T17:38:56.074Z,20.91
2022-08-26T17:41:24.093Z,20.93
2022-08-26T17:43:52.263Z,21.04
2022-08-26T17:46:26.580Z,21.06
2022-08-26T17:48:56.320Z,21.18
2022-08-26T17:51:25.344Z,21.04
2022-08-26T17:53:53.615Z,21.11
2022-08-26T17:56:24.944Z,21.02
2022-08-26T17:58:54.340Z,21.04
2022-08-26T18:01:26.101Z,21.10
2022-08-26T18:04:00.272Z,21.14
2022-08-26T18:06:31.183Z,21.14
2022-08-26T18:08:59.863Z,21.16
2022-08-26T18:11:28.486Z,21.09
2022-08-26T18:13:56.618Z,21.14
2022-08-26T18:16:25.487Z,21.14
2022-08-26T18:18:53.987Z,21.09
2022-08-26T18:21:25.732Z,21.13
2022-08-26T18:23:55.239Z,21.13
2022-08-26T18:26:26.156Z,21.14
2022-08-26T18:28:54.611Z,21.16
2022-08-26T18:31:22.710Z,21.16
2022-08-26T18:33:51.138Z,21.20
2022-08-26T18:36:21.649Z,21.19
2022-08-26T18:38:52.516Z,21.16
2022-08-26T18:41:23.063Z,21.25
2022-08-26T18:43:53.153Z,21.23
2022-08-26T18:46:24.951Z,21.28
2022-08-26T18:48:53.419Z,21.24
2022-08-26T18:51:24.995Z,21.37
2022-08-26T18:53:54.874Z,21.36
2022-08-26T18:56:23.238Z,21.36
2022-08-26T18:58:51.653Z,21.37
2022-08-26T19:01:23.224Z,21.34
2022-08-26T19:03:54.306Z,21.39
2022-08-26T19:06:23.782Z,21.41
2022-08-26T19:08:51.849Z,21.39
2022-08-26T19:11:32.525Z,21.38
2022-08-26T19:14:07.685Z,21.37
2022-08-26T19:16:37.403Z,21.32
2022-08-26T19:19:06.452Z,21.31
2022-08-26T19:21:36.239Z,21.25
2022-08-26T19:24:07.617Z,21.21
2022-08-26T19:26:38.892Z,21.25
2022-08-26T19:29:07.138Z,21.19
2022-08-26T19:31:35.363Z,20.93
2022-08-26T19:34:05.283Z,20.80
2022-08-26T19:36:34.215Z,20.71
2022-08-26T19:39:05.088Z,20.71
2022-08-26T19:41:39.558Z,20.66
2022-08-26T19:44:09.890Z,20.59
2022-08-26T19:49:11.409Z,20.53
2022-08-26T19:51:39.459Z,20.51
2022-08-26T19:54:07.560Z,20.48
2022-08-26T19:56:36.988Z,20.50
2022-08-26T19:59:05.108Z,20.51
2022-08-26T20:01:33.206Z,20.48
2022-08-26T20:04:01.390Z,20.47
2022-08-26T20:06:29.538Z,20.44
2022-08-26T20:08:57.583Z,20.47
2022-08-26T20:11:26.271Z,20.29
2022-08-26T20:13:55.871Z,20.40
2022-08-26T20:16:23.998Z,20.45
2022-08-26T20:19:09.775Z,20.45
2022-08-26T20:21:40.118Z,20.43
2022-08-26T20:24:11.222Z,20.44
2022-08-26T20:26:40.818Z,20.39
2022-08-26T20:29:11.865Z,20.33
2022-08-26T20:31:40.571Z,20.34
2022-08-26T20:34:09.125Z,20.31
2022-08-26T20:36:39.789Z,20.26
2022-08-26T20:39:08.453Z,20.29
2022-08-26T20:41:36.662Z,20.26
2022-08-26T20:44:05.234Z,20.24
2022-08-26T20:46:38.724Z,20.21
2022-08-26T20:49:08.190Z,20.16
2022-08-26T20:51:38.486Z,20.16
2022-08-26T20:54:07.842Z,20.07
2022-08-26T20:56:36.118Z,20.15
2022-08-26T20:59:06.862Z,20.10
2022-08-26T21:01:42.323Z,20.09
2022-08-26T21:04:13.842Z,19.99
2022-08-26T21:06:48.988Z,20.00
2022-08-26T21:09:22.077Z,19.85
2022-08-26T21:11:57.203Z,19.84
2022-08-26T21:14:25.802Z,19.83
2022-08-26T21:16:55.784Z,19.76
2022-08-26T21:19:23.971Z,19.55
2022-08-26T21:21:52.154Z,19.64
2022-08-26T21:24:20.563Z,19.51
2022-08-26T21:26:49.052Z,19.52
2022-08-26T21:29:17.158Z,19.54
2022-08-26T21:31:46.747Z,19.56
2022-08-26T21:34:18.602Z,19.61
2022-08-26T21:36:48.595Z,19.53
2022-08-26T21:39:17.009Z,19.53
2022-08-26T21:41:46.081Z,19.46
2022-08-26T21:44:15.459Z,19.47
2022-08-26T21:46:45.210Z,19.44
2022-08-26T21:49:16.745Z,19.41
2022-08-26T21:51:47.121Z,19.41
2022-08-26T21:54:15.842Z,19.44
2022-08-26T21:56:47.151Z,19.42
2022-08-26T21:59:17.391Z,19.41
2022-08-26T22:01:45.806Z,19.45
2022-08-26T22:04:13.905Z,19.45
2022-08-26T22:06:45.101Z,19.42
2022-08-26T22:09:14.848Z,19.44
2022-08-26T22:11:43.233Z,19.43
2022-08-26T22:14:11.750Z,19.45
2022-08-26T22:16:39.919Z,19.48
2022-08-26T22:19:10.328Z,19.37
2022-08-26T22:21:50.798Z,19.35
2022-08-26T22:24:20.032Z,19.41
2022-08-26T22:26:48.817Z,19.38
2022-08-26T22:29:17.218Z,19.34
2022-08-26T22:31:45.589Z,19.36
2022-08-26T22:34:17.305Z,19.42
2022-08-26T22:36:48.589Z,19.40
2022-08-26T22:39:18.434Z,19.39
2022-08-26T22:41:50.480Z,19.44
2022-08-26T22:44:20.501Z,19.46
2022-08-26T22:46:49.840Z,19.42
2022-08-26T22:49:18.264Z,19.51
2022-08-26T22:51:52.036Z,19.48
2022-08-26T22:54:20.074Z,19.45
2022-08-26T22:56:48.666Z,19.49
2022-08-26T22:59:16.873Z,19.39
2022-08-26T23:01:46.846Z,19.47
2022-08-26T23:04:14.962Z,19.46
2022-08-26T23:06:47.473Z,19.48
2022-08-26T23:09:18.521Z,19.48
2022-08-26T23:11:47.743Z,19.48
2022-08-26T23:14:21.454Z,19.48
2022-08-26T23:16:50.352Z,19.49
2022-08-26T23:19:20.580Z,19.48
2022-08-26T23:21:48.921Z,19.45
2022-08-26T23:24:23.232Z,19.46
2022-08-26T23:26:51.297Z,19.45
2022-08-26T23:29:19.353Z,19.45
2022-08-26T23:31:47.881Z,19.48
2022-08-26T23:34:33.525Z,19.42
2022-08-26T23:37:01.719Z,19.46
2022-08-26T23:39:32.239Z,19.47
2022-08-26T23:42:01.646Z,19.49
2022-08-26T23:44:30.681Z,19.53
2022-08-26T23:46:59.615Z,19.49
2022-08-26T23:49:32.915Z,19.38
2022-08-26T23:52:18.620Z,19.43
2022-08-26T23:54:48.830Z,19.45
2022-08-26T23:57:19.489Z,19.47
2022-08-26T23:59:48.522Z,19.46
